sensor_id;sensor_type;location;lat;lon;timestamp;temperature;humidity
32334;DHT22;18810;53.040;8.850;2022-11-30T00:00:17;5.90;99.90
32334;DHT22;18810;53.040;8.850;2022-11-30T00:02:43;5.90;99.90
32334;DHT22;18810;53.040;8.850;2022-11-30T00:05:10;5.90;99.90
32334;DHT22;18810;53.040;8.850;2022-11-30T00:07:36;5.90;99.90
32334;DHT22;18810;53.040;8.850;2022-11-30T00:10:03;6.10;99.90
32334;DHT22;18810;53.040;8.850;2022-11-30T00:12:29;6.10;99.90
32334;DHT22;18810;53.040;8.850;2022-11-30T00:14:54;6.00;99.90
32334;DHT22;18810;53.040;8.850;2022-11-30T00:17:20;6.00;99.90
32334;DHT22;18810;53.040;8.850;2022-11-30T00:19:45;6.10;99.90
32334;DHT22;18810;53.040;8.850;2022-11-30T00:22:11;6.10;99.90
32334;DHT22;18810;53.040;8.850;2022-11-30T00:24:37;6.10;99.90
32334;DHT22;18810;53.040;8.850;2022-11-30T00:27:02;6.10;99.90
32334;DHT22;18810;53.040;8.850;2022-11-30T00:29:28;6.00;99.90
32334;DHT22;18810;53.040;8.850;2022-11-30T00:31:54;6.10;99.90
32334;DHT22;18810;53.040;8.850;2022-11-30T00:34:19;5.90;99.90
32334;DHT22;18810;53.040;8.850;2022-11-30T00:36:45;5.90;99.90
32334;DHT22;18810;53.040;8.850;2022-11-30T00:39:12;6.30;99.90
32334;DHT22;18810;53.040;8.850;2022-11-30T00:41:37;6.00;99.90
32334;DHT22;18810;53.040;8.850;2022-11-30T00:44:03;6.00;99.90
32334;DHT22;18810;53.040;8.850;2022-11-30T00:48:55;5.90;99.90
32334;DHT22;18810;53.040;8.850;2022-11-30T00:51:20;6.00;99.90
32334;DHT22;18810;53.040;8.850;2022-11-30T00:53:46;6.10;99.90
32334;DHT22;18810;53.040;8.850;2022-11-30T00:56:12;6.10;99.90
32334;DHT22;18810;53.040;8.850;2022-11-30T00:58:38;6.20;99.90
32334;DHT22;18810;53.040;8.850;2022-11-30T01:01:05;6.30;99.90
32334;DHT22;18810;53.040;8.850;2022-11-30T01:06:02;6.10;99.90
32334;DHT22;18810;53.040;8.850;2022-11-30T01:08:31;6.10;99.90
32334;DHT22;18810;53.040;8.850;2022-11-30T01:13:44;6.10;99.90
32334;DHT22;18810;53.040;8.850;2022-11-30T01:16:12;6.10;99.90
32334;DHT22;18810;53.040;8.850;2022-11-30T01:18:45;6.10;99.90
32334;DHT22;18810;53.040;8.850;2022-11-30T01:21:13;6.00;99.90
32334;DHT22;18810;53.040;8.850;2022-11-30T01:23:40;6.00;99.90
32334;DHT22;18810;53.040;8.850;2022-11-30T01:26:06;6.10;99.90
32334;DHT22;18810;53.040;8.850;2022-11-30T01:28:32;6.20;99.90
32334;DHT22;18810;53.040;8.850;2022-11-30T01:31:04;6.10;99.90
32334;DHT22;18810;53.040;8.850;2022-11-30T01:33:30;6.10;99.90
32334;DHT22;18810;53.040;8.850;2022-11-30T01:36:05;6.10;99.90
32334;DHT22;18810;53.040;8.850;2022-11-30T01:38:41;6.20;99.90
32334;DHT22;18810;53.040;8.850;2022-11-30T01:41:12;6.10;99.90
32334;DHT22;18810;53.040;8.850;2022-11-30T01:46:43;6.00;99.90
32334;DHT22;18810;53.040;8.850;2022-11-30T01:51:49;6.20;99.90
32334;DHT22;18810;53.040;8.850;2022-11-30T01:54:18;6.00;99.90
32334;DHT22;18810;53.040;8.850;2022-11-30T01:56:52;6.20;99.90
32334;DHT22;18810;53.040;8.850;2022-11-30T01:59:21;6.00;99.90
32334;DHT22;18810;53.040;8.850;2022-11-30T02:01:48;6.00;99.90
32334;DHT22;18810;53.040;8.850;2022-11-30T02:06:39;6.00;99.90
32334;DHT22;18810;53.040;8.850;2022-11-30T02:09:05;5.90;99.90
32334;DHT22;18810;53.040;8.850;2022-11-30T02:11:31;5.90;99.90
32334;DHT22;18810;53.040;8.850;2022-11-30T02:16:55;5.90;99.90
32334;DHT22;18810;53.040;8.850;2022-11-30T02:30:22;5.90;99.90
32334;DHT22;18810;53.040;8.850;2022-11-30T02:33:10;5.90;99.90
32334;DHT22;18810;53.040;8.850;2022-11-30T02:35:39;6.00;99.90
32334;DHT22;18810;53.040;8.850;2022-11-30T02:38:05;6.00;99.90
32334;DHT22;18810;53.040;8.850;2022-11-30T02:40:32;5.90;99.90
32334;DHT22;18810;53.040;8.850;2022-11-30T02:42:59;5.90;99.90
32334;DHT22;18810;53.040;8.850;2022-11-30T02:48:19;5.80;99.90
32334;DHT22;18810;53.040;8.850;2022-11-30T02:50:56;5.70;99.90
32334;DHT22;18810;53.040;8.850;2022-11-30T02:53:24;5.70;99.90
32334;DHT22;18810;53.040;8.850;2022-11-30T02:55:50;5.60;99.90
32334;DHT22;18810;53.040;8.850;2022-11-30T02:58:16;5.70;99.90
32334;DHT22;18810;53.040;8.850;2022-11-30T03:03:08;5.50;99.90
32334;DHT22;18810;53.040;8.850;2022-11-30T03:05:34;5.60;99.90
32334;DHT22;18810;53.040;8.850;2022-11-30T03:08:00;5.60;99.90
32334;DHT22;18810;53.040;8.850;2022-11-30T03:10:25;5.60;99.90
32334;DHT22;18810;53.040;8.850;2022-11-30T03:12:51;5.60;99.90
32334;DHT22;18810;53.040;8.850;2022-11-30T03:17:43;5.60;99.90
32334;DHT22;18810;53.040;8.850;2022-11-30T03:20:09;5.60;99.90
32334;DHT22;18810;53.040;8.850;2022-11-30T03:22:37;5.60;99.90
32334;DHT22;18810;53.040;8.850;2022-11-30T03:25:03;5.50;99.90
32334;DHT22;18810;53.040;8.850;2022-11-30T03:27:29;5.50;99.90
32334;DHT22;18810;53.040;8.850;2022-11-30T03:29:54;5.50;99.90
32334;DHT22;18810;53.040;8.850;2022-11-30T03:32:20;5.50;99.90
32334;DHT22;18810;53.040;8.850;2022-11-30T03:34:46;5.50;99.90
32334;DHT22;18810;53.040;8.850;2022-11-30T03:37:11;5.60;99.90
32334;DHT22;18810;53.040;8.850;2022-11-30T03:39:37;5.60;99.90
32334;DHT22;18810;53.040;8.850;2022-11-30T03:42:03;6.40;99.90
32334;DHT22;18810;53.040;8.850;2022-11-30T03:44:28;5.70;99.90
32334;DHT22;18810;53.040;8.850;2022-11-30T03:46:54;5.80;99.90
32334;DHT22;18810;53.040;8.850;2022-11-30T03:49:20;5.80;99.90
32334;DHT22;18810;53.040;8.850;2022-11-30T03:51:45;5.70;99.90
32334;DHT22;18810;53.040;8.850;2022-11-30T03:54:11;5.80;99.90
32334;DHT22;18810;53.040;8.850;2022-11-30T03:56:37;5.70;99.90
32334;DHT22;18810;53.040;8.850;2022-11-30T03:59:03;5.80;99.90
32334;DHT22;18810;53.040;8.850;2022-11-30T04:01:28;5.80;99.90
32334;DHT22;18810;53.040;8.850;2022-11-30T04:03:54;6.20;99.90
32334;DHT22;18810;53.040;8.850;2022-11-30T04:06:20;7.40;99.90
32334;DHT22;18810;53.040;8.850;2022-11-30T04:08:46;5.80;99.90
32334;DHT22;18810;53.040;8.850;2022-11-30T04:11:12;6.60;99.90
32334;DHT22;18810;53.040;8.850;2022-11-30T04:13:38;5.80;99.90
32334;DHT22;18810;53.040;8.850;2022-11-30T04:16:05;5.90;99.90
32334;DHT22;18810;53.040;8.850;2022-11-30T04:18:32;5.90;99.90
32334;DHT22;18810;53.040;8.850;2022-11-30T04:20:58;6.00;99.90
32334;DHT22;18810;53.040;8.850;2022-11-30T04:23:26;5.90;99.90
32334;DHT22;18810;53.040;8.850;2022-11-30T04:25:53;5.90;99.90
32334;DHT22;18810;53.040;8.850;2022-11-30T04:28:18;5.90;99.90
32334;DHT22;18810;53.040;8.850;2022-11-30T04:33:12;6.00;99.90
32334;DHT22;18810;53.040;8.850;2022-11-30T04:35:40;5.90;99.90
32334;DHT22;18810;53.040;8.850;2022-11-30T04:38:06;5.90;99.90
32334;DHT22;18810;53.040;8.850;2022-11-30T04:40:38;6.00;99.90
32334;DHT22;18810;53.040;8.850;2022-11-30T04:43:04;6.00;99.90
32334;DHT22;18810;53.040;8.850;2022-11-30T04:45:29;5.90;99.90
32334;DHT22;18810;53.040;8.850;2022-11-30T04:47:55;5.80;99.90
32334;DHT22;18810;53.040;8.850;2022-11-30T04:50:21;5.90;99.90
32334;DHT22;18810;53.040;8.850;2022-11-30T04:52:46;5.90;99.90
32334;DHT22;18810;53.040;8.850;2022-11-30T04:55:12;5.80;99.90
32334;DHT22;18810;53.040;8.850;2022-11-30T04:57:38;5.80;99.90
32334;DHT22;18810;53.040;8.850;2022-11-30T05:00:04;5.80;99.90
32334;DHT22;18810;53.040;8.850;2022-11-30T05:02:30;5.90;99.90
32334;DHT22;18810;53.040;8.850;2022-11-30T05:04:56;6.80;99.90
32334;DHT22;18810;53.040;8.850;2022-11-30T05:07:21;5.90;99.90
32334;DHT22;18810;53.040;8.850;2022-11-30T05:09:47;6.00;99.90
32334;DHT22;18810;53.040;8.850;2022-11-30T05:12:12;6.00;99.90
32334;DHT22;18810;53.040;8.850;2022-11-30T05:14:38;5.90;99.90
32334;DHT22;18810;53.040;8.850;2022-11-30T05:17:04;6.00;99.90
32334;DHT22;18810;53.040;8.850;2022-11-30T05:19:29;5.70;99.90
32334;DHT22;18810;53.040;8.850;2022-11-30T05:21:55;5.70;99.90
32334;DHT22;18810;53.040;8.850;2022-11-30T05:24:21;5.70;99.90
32334;DHT22;18810;53.040;8.850;2022-11-30T05:26:46;5.70;99.90
32334;DHT22;18810;53.040;8.850;2022-11-30T05:29:12;5.70;99.90
32334;DHT22;18810;53.040;8.850;2022-11-30T05:31:38;5.80;99.90
32334;DHT22;18810;53.040;8.850;2022-11-30T05:34:05;5.80;99.90
32334;DHT22;18810;53.040;8.850;2022-11-30T05:36:30;5.70;99.90
32334;DHT22;18810;53.040;8.850;2022-11-30T05:38:56;5.80;99.90
32334;DHT22;18810;53.040;8.850;2022-11-30T05:41:22;6.60;99.90
32334;DHT22;18810;53.040;8.850;2022-11-30T05:43:47;6.40;99.90
32334;DHT22;18810;53.040;8.850;2022-11-30T05:46:13;5.60;99.90
32334;DHT22;18810;53.040;8.850;2022-11-30T05:48:39;5.60;99.90
32334;DHT22;18810;53.040;8.850;2022-11-30T05:51:10;5.50;99.90
32334;DHT22;18810;53.040;8.850;2022-11-30T05:56:04;5.70;99.90
32334;DHT22;18810;53.040;8.850;2022-11-30T05:58:30;5.60;99.90
32334;DHT22;18810;53.040;8.850;2022-11-30T06:00:56;5.60;99.90
32334;DHT22;18810;53.040;8.850;2022-11-30T06:03:22;5.70;99.90
32334;DHT22;18810;53.040;8.850;2022-11-30T06:05:51;5.70;99.90
32334;DHT22;18810;53.040;8.850;2022-11-30T06:08:20;5.70;99.90
32334;DHT22;18810;53.040;8.850;2022-11-30T06:10:46;5.80;99.90
32334;DHT22;18810;53.040;8.850;2022-11-30T06:13:12;5.80;99.90
32334;DHT22;18810;53.040;8.850;2022-11-30T06:15:39;5.80;99.90
32334;DHT22;18810;53.040;8.850;2022-11-30T06:18:06;5.80;99.90
32334;DHT22;18810;53.040;8.850;2022-11-30T06:22:57;5.80;99.90
32334;DHT22;18810;53.040;8.850;2022-11-30T06:25:24;5.90;99.90
32334;DHT22;18810;53.040;8.850;2022-11-30T06:27:50;5.90;99.90
32334;DHT22;18810;53.040;8.850;2022-11-30T06:30:16;5.80;99.90
32334;DHT22;18810;53.040;8.850;2022-11-30T06:32:50;6.30;99.90
32334;DHT22;18810;53.040;8.850;2022-11-30T06:35:17;5.80;99.90
32334;DHT22;18810;53.040;8.850;2022-11-30T06:37:42;5.80;99.90
32334;DHT22;18810;53.040;8.850;2022-11-30T06:40:10;5.90;99.90
32334;DHT22;18810;53.040;8.850;2022-11-30T06:42:36;5.90;99.90
32334;DHT22;18810;53.040;8.850;2022-11-30T06:45:03;5.90;99.90
32334;DHT22;18810;53.040;8.850;2022-11-30T06:47:28;6.00;99.90
32334;DHT22;18810;53.040;8.850;2022-11-30T06:49:54;5.90;99.90
32334;DHT22;18810;53.040;8.850;2022-11-30T06:52:20;5.90;99.90
32334;DHT22;18810;53.040;8.850;2022-11-30T06:54:45;6.10;99.90
32334;DHT22;18810;53.040;8.850;2022-11-30T06:57:11;5.70;99.90
32334;DHT22;18810;53.040;8.850;2022-11-30T06:59:37;5.80;99.90
32334;DHT22;18810;53.040;8.850;2022-11-30T07:02:10;5.80;99.90
32334;DHT22;18810;53.040;8.850;2022-11-30T07:04:35;5.90;99.90
32334;DHT22;18810;53.040;8.850;2022-11-30T07:07:01;5.80;99.90
32334;DHT22;18810;53.040;8.850;2022-11-30T07:09:27;5.90;99.90
32334;DHT22;18810;53.040;8.850;2022-11-30T07:11:52;5.90;99.90
32334;DHT22;18810;53.040;8.850;2022-11-30T07:14:18;6.00;99.90
32334;DHT22;18810;53.040;8.850;2022-11-30T07:16:45;6.00;99.90
32334;DHT22;18810;53.040;8.850;2022-11-30T07:19:37;6.00;99.90
32334;DHT22;18810;53.040;8.850;2022-11-30T07:22:03;6.00;99.90
32334;DHT22;18810;53.040;8.850;2022-11-30T07:24:28;6.00;99.90
32334;DHT22;18810;53.040;8.850;2022-11-30T07:27:12;6.00;99.90
32334;DHT22;18810;53.040;8.850;2022-11-30T07:29:38;6.10;99.90
32334;DHT22;18810;53.040;8.850;2022-11-30T07:34:30;5.90;99.90
32334;DHT22;18810;53.040;8.850;2022-11-30T07:36:55;6.00;99.90
32334;DHT22;18810;53.040;8.850;2022-11-30T07:41:48;5.90;99.90
32334;DHT22;18810;53.040;8.850;2022-11-30T07:44:14;6.00;99.90
32334;DHT22;18810;53.040;8.850;2022-11-30T07:46:40;6.00;99.90
32334;DHT22;18810;53.040;8.850;2022-11-30T07:49:07;5.90;99.90
32334;DHT22;18810;53.040;8.850;2022-11-30T07:51:33;5.90;99.90
32334;DHT22;18810;53.040;8.850;2022-11-30T07:53:59;6.00;99.90
32334;DHT22;18810;53.040;8.850;2022-11-30T07:56:26;6.00;99.90
32334;DHT22;18810;53.040;8.850;2022-11-30T07:59:00;6.10;99.90
32334;DHT22;18810;53.040;8.850;2022-11-30T08:01:29;6.10;99.90
32334;DHT22;18810;53.040;8.850;2022-11-30T08:03:56;6.10;99.90
32334;DHT22;18810;53.040;8.850;2022-11-30T08:06:26;6.10;99.90
32334;DHT22;18810;53.040;8.850;2022-11-30T08:08:55;6.10;99.90
32334;DHT22;18810;53.040;8.850;2022-11-30T08:11:23;6.10;99.90
32334;DHT22;18810;53.040;8.850;2022-11-30T08:16:39;6.10;99.90
32334;DHT22;18810;53.040;8.850;2022-11-30T08:19:04;6.20;99.90
32334;DHT22;18810;53.040;8.850;2022-11-30T08:21:30;6.40;99.90
32334;DHT22;18810;53.040;8.850;2022-11-30T08:26:33;6.30;99.90
32334;DHT22;18810;53.040;8.850;2022-11-30T08:28:59;6.30;99.90
32334;DHT22;18810;53.040;8.850;2022-11-30T08:31:28;6.30;99.90
32334;DHT22;18810;53.040;8.850;2022-11-30T08:34:03;6.30;99.90
32334;DHT22;18810;53.040;8.850;2022-11-30T08:38:59;6.40;99.90
32334;DHT22;18810;53.040;8.850;2022-11-30T08:41:27;6.40;99.90
32334;DHT22;18810;53.040;8.850;2022-11-30T08:43:53;6.30;99.90
32334;DHT22;18810;53.040;8.850;2022-11-30T08:46:20;6.40;99.90
32334;DHT22;18810;53.040;8.850;2022-11-30T08:48:46;6.70;99.90
32334;DHT22;18810;53.040;8.850;2022-11-30T08:51:14;6.40;99.90
32334;DHT22;18810;53.040;8.850;2022-11-30T08:53:41;6.40;99.90
32334;DHT22;18810;53.040;8.850;2022-11-30T08:56:12;6.70;99.90
32334;DHT22;18810;53.040;8.850;2022-11-30T08:58:39;6.50;99.90
32334;DHT22;18810;53.040;8.850;2022-11-30T09:01:13;6.50;99.90
32334;DHT22;18810;53.040;8.850;2022-11-30T09:03:40;6.80;99.90
32334;DHT22;18810;53.040;8.850;2022-11-30T09:06:21;6.50;99.90
32334;DHT22;18810;53.040;8.850;2022-11-30T09:08:48;6.50;99.90
32334;DHT22;18810;53.040;8.850;2022-11-30T09:11:25;6.50;99.90
32334;DHT22;18810;53.040;8.850;2022-11-30T09:13:53;6.50;99.90
32334;DHT22;18810;53.040;8.850;2022-11-30T09:16:22;6.60;99.90
32334;DHT22;18810;53.040;8.850;2022-11-30T09:21:16;6.60;99.90
32334;DHT22;18810;53.040;8.850;2022-11-30T09:26:11;6.70;99.90
32334;DHT22;18810;53.040;8.850;2022-11-30T09:31:10;6.70;99.90
32334;DHT22;18810;53.040;8.850;2022-11-30T09:33:36;6.70;99.90
32334;DHT22;18810;53.040;8.850;2022-11-30T09:36:05;6.70;99.90
32334;DHT22;18810;53.040;8.850;2022-11-30T09:38:31;6.70;99.90
32334;DHT22;18810;53.040;8.850;2022-11-30T09:41:03;6.70;99.90
32334;DHT22;18810;53.040;8.850;2022-11-30T09:46:08;6.80;99.90
32334;DHT22;18810;53.040;8.850;2022-11-30T09:48:58;6.70;99.90
32334;DHT22;18810;53.040;8.850;2022-11-30T09:51:30;7.00;99.90
32334;DHT22;18810;53.040;8.850;2022-11-30T09:54:02;6.80;99.90
32334;DHT22;18810;53.040;8.850;2022-11-30T09:56:36;6.90;99.90
32334;DHT22;18810;53.040;8.850;2022-11-30T09:59:23;6.80;99.90
32334;DHT22;18810;53.040;8.850;2022-11-30T10:01:51;6.90;99.90
32334;DHT22;18810;53.040;8.850;2022-11-30T10:04:21;6.90;99.90
32334;DHT22;18810;53.040;8.850;2022-11-30T10:12:22;7.00;99.90
32334;DHT22;18810;53.040;8.850;2022-11-30T10:15:00;7.10;99.90
32334;DHT22;18810;53.040;8.850;2022-11-30T10:17:45;7.10;99.90
32334;DHT22;18810;53.040;8.850;2022-11-30T10:26:21;7.10;99.90
32334;DHT22;18810;53.040;8.850;2022-11-30T10:28:52;7.10;99.90
32334;DHT22;18810;53.040;8.850;2022-11-30T10:31:30;7.00;99.90
32334;DHT22;18810;53.040;8.850;2022-11-30T10:34:02;7.10;99.90
32334;DHT22;18810;53.040;8.850;2022-11-30T10:36:36;7.20;99.90
32334;DHT22;18810;53.040;8.850;2022-11-30T10:39:09;7.20;99.90
32334;DHT22;18810;53.040;8.850;2022-11-30T10:41:53;7.20;99.90
32334;DHT22;18810;53.040;8.850;2022-11-30T10:44:23;7.20;99.90
32334;DHT22;18810;53.040;8.850;2022-11-30T10:49:50;7.00;99.90
32334;DHT22;18810;53.040;8.850;2022-11-30T10:52:23;7.20;99.90
32334;DHT22;18810;53.040;8.850;2022-11-30T10:54:52;7.30;99.90
32334;DHT22;18810;53.040;8.850;2022-11-30T10:57:19;7.30;99.90
32334;DHT22;18810;53.040;8.850;2022-11-30T10:59:53;7.30;99.90
32334;DHT22;18810;53.040;8.850;2022-11-30T11:05:21;7.40;99.90
32334;DHT22;18810;53.040;8.850;2022-11-30T11:07:50;7.30;99.90
32334;DHT22;18810;53.040;8.850;2022-11-30T11:10:28;7.30;99.90
32334;DHT22;18810;53.040;8.850;2022-11-30T11:15:27;7.30;99.90
32334;DHT22;18810;53.040;8.850;2022-11-30T11:20:37;7.30;99.90
32334;DHT22;18810;53.040;8.850;2022-11-30T11:23:28;7.30;99.90
32334;DHT22;18810;53.040;8.850;2022-11-30T11:25:54;7.40;99.90
32334;DHT22;18810;53.040;8.850;2022-11-30T11:28:21;7.40;99.90
32334;DHT22;18810;53.040;8.850;2022-11-30T11:30:51;7.40;99.90
32334;DHT22;18810;53.040;8.850;2022-11-30T11:35:50;7.50;99.90
32334;DHT22;18810;53.040;8.850;2022-11-30T11:38:24;7.40;99.90
32334;DHT22;18810;53.040;8.850;2022-11-30T11:41:00;7.50;99.90
32334;DHT22;18810;53.040;8.850;2022-11-30T11:43:29;7.50;99.90
32334;DHT22;18810;53.040;8.850;2022-11-30T11:46:08;7.50;99.90
32334;DHT22;18810;53.040;8.850;2022-11-30T11:48:39;7.60;99.90
32334;DHT22;18810;53.040;8.850;2022-11-30T11:51:07;7.60;99.90
32334;DHT22;18810;53.040;8.850;2022-11-30T11:56:56;7.60;99.90
32334;DHT22;18810;53.040;8.850;2022-11-30T12:12:36;7.60;99.90
32334;DHT22;18810;53.040;8.850;2022-11-30T12:20:20;7.40;99.90
32334;DHT22;18810;53.040;8.850;2022-11-30T12:26:32;7.50;99.90
32334;DHT22;18810;53.040;8.850;2022-11-30T12:37:41;7.40;99.90
32334;DHT22;18810;53.040;8.850;2022-11-30T12:48:24;7.70;99.90
32334;DHT22;18810;53.040;8.850;2022-11-30T12:53:41;7.40;99.90
32334;DHT22;18810;53.040;8.850;2022-11-30T12:56:46;7.40;99.90
32334;DHT22;18810;53.040;8.850;2022-11-30T12:59:26;7.50;99.90
32334;DHT22;18810;53.040;8.850;2022-11-30T13:04:35;7.40;99.90
32334;DHT22;18810;53.040;8.850;2022-11-30T13:07:13;7.40;99.90
32334;DHT22;18810;53.040;8.850;2022-11-30T13:09:55;7.50;99.90
32334;DHT22;18810;53.040;8.850;2022-11-30T13:12:34;7.50;99.90
32334;DHT22;18810;53.040;8.850;2022-11-30T13:15:05;7.40;99.90
32334;DHT22;18810;53.040;8.850;2022-11-30T13:17:31;7.50;99.90
32334;DHT22;18810;53.040;8.850;2022-11-30T13:28:28;7.20;99.90
32334;DHT22;18810;53.040;8.850;2022-11-30T13:36:41;7.40;99.90
32334;DHT22;18810;53.040;8.850;2022-11-30T13:41:46;7.40;99.90
32334;DHT22;18810;53.040;8.850;2022-11-30T13:44:31;7.30;99.90
32334;DHT22;18810;53.040;8.850;2022-11-30T13:46:59;7.40;99.90
32334;DHT22;18810;53.040;8.850;2022-11-30T13:49:35;7.40;99.90
32334;DHT22;18810;53.040;8.850;2022-11-30T13:54:45;7.40;99.90
32334;DHT22;18810;53.040;8.850;2022-11-30T13:57:15;7.30;99.90
32334;DHT22;18810;53.040;8.850;2022-11-30T13:59:50;7.30;99.90
32334;DHT22;18810;53.040;8.850;2022-11-30T14:20:45;7.20;99.90
32334;DHT22;18810;53.040;8.850;2022-11-30T14:23:42;7.10;99.90
32334;DHT22;18810;53.040;8.850;2022-11-30T14:26:16;7.10;99.90
32334;DHT22;18810;53.040;8.850;2022-11-30T14:31:32;7.20;99.90
32334;DHT22;18810;53.040;8.850;2022-11-30T14:34:24;7.20;99.90
32334;DHT22;18810;53.040;8.850;2022-11-30T14:36:55;7.20;99.90
32334;DHT22;18810;53.040;8.850;2022-11-30T14:39:41;7.20;99.90
32334;DHT22;18810;53.040;8.850;2022-11-30T14:42:27;7.30;99.90
32334;DHT22;18810;53.040;8.850;2022-11-30T14:44:54;7.20;99.90
32334;DHT22;18810;53.040;8.850;2022-11-30T14:47:21;7.20;99.90
32334;DHT22;18810;53.040;8.850;2022-11-30T14:49:49;7.10;99.90
32334;DHT22;18810;53.040;8.850;2022-11-30T14:58:11;7.30;99.90
32334;DHT22;18810;53.040;8.850;2022-11-30T15:00:41;7.10;99.90
32334;DHT22;18810;53.040;8.850;2022-11-30T15:03:22;7.00;99.90
32334;DHT22;18810;53.040;8.850;2022-11-30T15:05:51;6.90;99.90
32334;DHT22;18810;53.040;8.850;2022-11-30T15:08:18;6.90;99.90
32334;DHT22;18810;53.040;8.850;2022-11-30T15:10:44;7.00;99.90
32334;DHT22;18810;53.040;8.850;2022-11-30T15:13:15;7.00;99.90
32334;DHT22;18810;53.040;8.850;2022-11-30T15:15:53;7.00;99.90
32334;DHT22;18810;53.040;8.850;2022-11-30T15:18:22;6.90;99.90
32334;DHT22;18810;53.040;8.850;2022-11-30T15:20:50;6.70;99.90
32334;DHT22;18810;53.040;8.850;2022-11-30T15:23:18;6.90;99.90
32334;DHT22;18810;53.040;8.850;2022-11-30T15:25:53;6.90;99.90
32334;DHT22;18810;53.040;8.850;2022-11-30T15:28:23;6.90;99.90
32334;DHT22;18810;53.040;8.850;2022-11-30T15:30:55;6.90;99.90
32334;DHT22;18810;53.040;8.850;2022-11-30T15:33:22;6.90;99.90
32334;DHT22;18810;53.040;8.850;2022-11-30T15:35:52;6.90;99.90
32334;DHT22;18810;53.040;8.850;2022-11-30T15:38:25;7.00;99.90
32334;DHT22;18810;53.040;8.850;2022-11-30T15:41:00;7.00;99.90
32334;DHT22;18810;53.040;8.850;2022-11-30T15:43:27;6.90;99.90
32334;DHT22;18810;53.040;8.850;2022-11-30T15:45:57;6.90;99.90
32334;DHT22;18810;53.040;8.850;2022-11-30T15:50:56;7.00;99.90
32334;DHT22;18810;53.040;8.850;2022-11-30T15:53:31;6.80;99.90
32334;DHT22;18810;53.040;8.850;2022-11-30T15:56:07;6.80;99.90
32334;DHT22;18810;53.040;8.850;2022-11-30T16:01:03;6.80;99.90
32334;DHT22;18810;53.040;8.850;2022-11-30T16:03:31;6.60;99.90
32334;DHT22;18810;53.040;8.850;2022-11-30T16:05:58;6.90;99.90
32334;DHT22;18810;53.040;8.850;2022-11-30T16:10:51;6.70;99.90
32334;DHT22;18810;53.040;8.850;2022-11-30T16:13:19;6.60;99.90
32334;DHT22;18810;53.040;8.850;2022-11-30T16:15:47;6.70;99.90
32334;DHT22;18810;53.040;8.850;2022-11-30T16:18:22;6.80;99.90
32334;DHT22;18810;53.040;8.850;2022-11-30T16:20:57;6.80;99.90
32334;DHT22;18810;53.040;8.850;2022-11-30T16:23:24;6.80;99.90
32334;DHT22;18810;53.040;8.850;2022-11-30T16:25:50;6.70;99.90
32334;DHT22;18810;53.040;8.850;2022-11-30T16:28:17;7.50;99.90
32334;DHT22;18810;53.040;8.850;2022-11-30T16:30:44;6.80;99.90
32334;DHT22;18810;53.040;8.850;2022-11-30T16:33:18;6.70;99.90
32334;DHT22;18810;53.040;8.850;2022-11-30T16:35:56;6.70;99.90
32334;DHT22;18810;53.040;8.850;2022-11-30T16:38:23;6.70;99.90
32334;DHT22;18810;53.040;8.850;2022-11-30T16:40:49;6.60;99.90
32334;DHT22;18810;53.040;8.850;2022-11-30T16:43:16;6.90;99.90
32334;DHT22;18810;53.040;8.850;2022-11-30T16:55:32;6.70;99.90
32334;DHT22;18810;53.040;8.850;2022-11-30T17:02:58;6.70;99.90
32334;DHT22;18810;53.040;8.850;2022-11-30T17:05:25;6.70;99.90
32334;DHT22;18810;53.040;8.850;2022-11-30T17:07:51;6.70;99.90
32334;DHT22;18810;53.040;8.850;2022-11-30T17:10:17;6.60;99.90
32334;DHT22;18810;53.040;8.850;2022-11-30T17:15:16;6.70;99.90
32334;DHT22;18810;53.040;8.850;2022-11-30T17:20:08;6.70;99.90
32334;DHT22;18810;53.040;8.850;2022-11-30T17:25:04;6.70;99.90
32334;DHT22;18810;53.040;8.850;2022-11-30T17:27:30;6.70;99.90
32334;DHT22;18810;53.040;8.850;2022-11-30T17:29:55;6.80;99.90
32334;DHT22;18810;53.040;8.850;2022-11-30T17:32:21;6.80;99.90
32334;DHT22;18810;53.040;8.850;2022-11-30T17:47:00;6.70;99.90
32334;DHT22;18810;53.040;8.850;2022-11-30T17:54:17;6.70;99.90
32334;DHT22;18810;53.040;8.850;2022-11-30T17:56:43;6.70;99.90
32334;DHT22;18810;53.040;8.850;2022-11-30T17:59:12;6.70;99.90
32334;DHT22;18810;53.040;8.850;2022-11-30T18:13:54;6.70;99.90
32334;DHT22;18810;53.040;8.850;2022-11-30T18:16:26;6.80;99.90
32334;DHT22;18810;53.040;8.850;2022-11-30T18:18:52;6.70;99.90
32334;DHT22;18810;53.040;8.850;2022-11-30T18:21:21;6.70;99.90
32334;DHT22;18810;53.040;8.850;2022-11-30T18:23:47;6.70;99.90
32334;DHT22;18810;53.040;8.850;2022-11-30T18:26:19;6.70;99.90
32334;DHT22;18810;53.040;8.850;2022-11-30T18:31:11;6.60;99.90
32334;DHT22;18810;53.040;8.850;2022-11-30T18:36:04;6.60;99.90
32334;DHT22;18810;53.040;8.850;2022-11-30T18:48:16;6.70;99.90
32334;DHT22;18810;53.040;8.850;2022-11-30T18:50:41;6.70;99.90
32334;DHT22;18810;53.040;8.850;2022-11-30T18:53:07;6.80;99.90
32334;DHT22;18810;53.040;8.850;2022-11-30T18:55:33;6.80;99.90
32334;DHT22;18810;53.040;8.850;2022-11-30T19:08:02;5.30;99.90
32334;DHT22;18810;53.040;8.850;2022-11-30T19:10:32;6.70;99.90
32334;DHT22;18810;53.040;8.850;2022-11-30T19:20:17;6.60;99.90
32334;DHT22;18810;53.040;8.850;2022-11-30T19:22:43;6.40;99.90
32334;DHT22;18810;53.040;8.850;2022-11-30T19:25:08;6.50;99.90
32334;DHT22;18810;53.040;8.850;2022-11-30T19:27:34;6.50;99.90
32334;DHT22;18810;53.040;8.850;2022-11-30T19:30:02;6.50;99.90
32334;DHT22;18810;53.040;8.850;2022-11-30T19:32:30;6.50;99.90
32334;DHT22;18810;53.040;8.850;2022-11-30T19:34:56;6.50;99.90
32334;DHT22;18810;53.040;8.850;2022-11-30T19:37:22;6.50;99.90
32334;DHT22;18810;53.040;8.850;2022-11-30T19:39:47;6.50;99.90
32334;DHT22;18810;53.040;8.850;2022-11-30T19:42:13;6.50;99.90
32334;DHT22;18810;53.040;8.850;2022-11-30T19:44:39;6.50;99.90
32334;DHT22;18810;53.040;8.850;2022-11-30T19:47:05;6.50;99.90
32334;DHT22;18810;53.040;8.850;2022-11-30T19:49:30;6.40;99.90
32334;DHT22;18810;53.040;8.850;2022-11-30T19:51:56;6.40;99.90
32334;DHT22;18810;53.040;8.850;2022-11-30T19:54:22;6.30;99.90
32334;DHT22;18810;53.040;8.850;2022-11-30T19:56:48;6.30;99.90
32334;DHT22;18810;53.040;8.850;2022-11-30T19:59:14;6.40;99.90
32334;DHT22;18810;53.040;8.850;2022-11-30T20:01:40;6.40;99.90
32334;DHT22;18810;53.040;8.850;2022-11-30T20:04:05;6.40;99.90
32334;DHT22;18810;53.040;8.850;2022-11-30T20:06:36;6.50;99.90
32334;DHT22;18810;53.040;8.850;2022-11-30T20:09:06;6.40;99.90
32334;DHT22;18810;53.040;8.850;2022-11-30T20:11:33;6.40;99.90
32334;DHT22;18810;53.040;8.850;2022-11-30T20:13:58;6.40;99.90
32334;DHT22;18810;53.040;8.850;2022-11-30T20:16:25;6.40;99.90
32334;DHT22;18810;53.040;8.850;2022-11-30T20:18:54;6.40;99.90
32334;DHT22;18810;53.040;8.850;2022-11-30T20:21:26;6.40;99.90
32334;DHT22;18810;53.040;8.850;2022-11-30T20:23:53;6.40;99.90
32334;DHT22;18810;53.040;8.850;2022-11-30T20:26:33;6.40;99.90
32334;DHT22;18810;53.040;8.850;2022-11-30T20:29:00;6.40;99.90
32334;DHT22;18810;53.040;8.850;2022-11-30T20:31:27;6.40;99.90